Formoso do Araguaia, Brazil
Current Conditions -  °F | °C
As of 1:00 AM on Sunday 26 Oct 2014 (Local Time) from SBPJ Reporting Station
Broken Clouds Broken Clouds  
Wind Chill: 79°   Ceiling: 10000
Heat Index: 81°   Visibility: 6mi
Dew Point: 70°   Wind: 2mph
Humidity: 74%   Direction: 290°WNW
Pressure: 29.83"   Gusts: NA
Location:  11.79°S, 49.54°W
Report Text: SBPJ 260400Z 29002KT 9999 FEW025 BKN100 26/21 Q1010
Loading
Personal Weather Stations






























Interactive Weather Map
Tropical Storm Tracking
New forecast layout! Learn more

10-Day Weather Forecast

Advertisements
Track Severe Weather on mobile